createdAt,value
2018-03-25T16:58:30.411Z,18.30
2018-03-25T16:59:32.880Z,20.20
2018-03-25T17:02:10.770Z,12.90
2018-03-25T17:02:50.748Z,10.20
2018-03-25T17:03:48.367Z,10.10
2018-03-25T17:04:48.041Z,10.70
2018-03-25T17:05:48.011Z,11.60
2018-03-25T17:06:48.003Z,12.80
2018-03-25T17:07:47.990Z,9.30
2018-03-25T17:08:48.492Z,11.00
2018-03-25T17:09:47.950Z,14.50
2018-03-25T17:10:47.507Z,12.10
2018-03-25T17:11:47.515Z,10.70
2018-03-25T17:12:47.507Z,13.90
2018-03-25T17:13:50.037Z,12.50
2018-03-25T17:14:50.052Z,17.50
2018-03-25T17:15:49.665Z,19.90
2018-03-25T17:16:49.467Z,16.80
2018-03-25T17:17:49.472Z,14.00
2018-03-25T17:18:49.681Z,15.40
2018-03-25T17:19:49.484Z,16.20
2018-03-25T17:20:49.535Z,16.00
2018-03-25T17:21:49.505Z,18.50
2018-03-25T17:22:49.109Z,20.80
2018-03-25T17:23:50.993Z,20.90
2018-03-25T17:24:48.792Z,21.00
2018-03-25T17:25:49.198Z,25.10
2018-03-25T17:26:49.024Z,22.90
2018-03-25T17:27:49.225Z,29.20
2018-03-25T17:28:49.036Z,24.10
2018-03-25T17:29:48.858Z,30.30
2018-03-25T17:30:48.637Z,29.20
2018-03-25T17:31:48.711Z,26.40
2018-03-25T17:32:48.631Z,31.40
2018-03-25T17:33:48.661Z,35.90
2018-03-25T17:34:47.135Z,28.40
2018-03-25T17:35:48.470Z,22.50
2018-03-25T17:36:48.475Z,24.50
2018-03-25T17:37:48.274Z,29.70
2018-03-25T17:38:48.286Z,26.20
2018-03-25T17:39:48.297Z,32.90
2018-03-25T17:40:47.980Z,35.40
2018-03-25T17:41:48.173Z,31.20
2018-03-25T17:42:47.892Z,29.00
2018-03-25T17:43:48.371Z,24.60
2018-03-25T17:44:47.810Z,25.80
2018-03-25T17:45:47.849Z,23.10
2018-03-25T17:46:47.892Z,23.40
2018-03-25T17:47:47.806Z,20.10
2018-03-25T17:48:52.596Z,24.90
2018-03-25T17:49:45.028Z,21.20
2018-03-25T17:50:45.016Z,23.80
2018-03-25T17:51:44.504Z,27.70
2018-03-25T17:52:44.498Z,26.10
2018-03-25T17:53:44.514Z,25.30
2018-03-25T17:54:44.520Z,25.90
2018-03-25T17:55:44.561Z,27.80
2018-03-25T17:56:44.509Z,23.00
2018-03-25T17:57:44.515Z,25.40
2018-03-25T17:58:44.015Z,27.80
2018-03-25T17:59:44.018Z,30.00
2018-03-25T18:00:44.022Z,20.70
2018-03-25T18:01:44.017Z,26.00
2018-03-25T18:02:44.010Z,20.50
2018-03-25T18:03:44.024Z,22.00
2018-03-25T18:04:44.021Z,22.50
2018-03-25T18:05:43.524Z,24.30
2018-03-25T18:06:43.528Z,21.40
2018-03-25T18:07:43.508Z,25.30
2018-03-25T18:08:43.510Z,24.00
2018-03-25T18:09:43.527Z,23.80
2018-03-25T18:10:43.523Z,25.70
2018-03-25T18:11:43.973Z,27.40
2018-03-25T18:12:43.029Z,19.70
2018-03-25T18:13:43.020Z,28.50
2018-03-25T18:14:43.042Z,23.30
2018-03-25T18:15:42.963Z,24.80
2018-03-25T18:16:41.004Z,28.20
2018-03-25T18:17:45.023Z,23.70
2018-03-25T18:18:41.619Z,21.90
2018-03-25T18:19:41.123Z,28.20
2018-03-25T18:20:40.909Z,24.20
2018-03-25T18:21:40.898Z,24.20
2018-03-25T18:22:40.835Z,26.80
2018-03-25T18:23:40.847Z,23.90
2018-03-25T18:24:40.671Z,24.40
2018-03-25T18:25:40.580Z,24.20
2018-03-25T18:26:40.599Z,23.80
2018-03-25T18:27:40.425Z,21.50
2018-03-25T18:28:40.479Z,24.80
2018-03-25T18:29:40.271Z,20.30
2018-03-25T18:30:40.419Z,27.70
2018-03-25T18:31:40.178Z,24.70
2018-03-25T18:32:40.086Z,26.20
2018-03-25T18:33:39.952Z,23.30
2018-03-25T18:34:39.943Z,22.90
2018-03-25T18:35:41.507Z,25.60
2018-03-25T18:36:41.515Z,23.90
2018-03-25T18:37:41.506Z,24.00
2018-03-25T18:38:41.025Z,22.90
2018-03-25T18:39:41.086Z,21.10
2018-03-25T18:40:41.009Z,24.30
2018-03-25T18:41:41.499Z,22.20
2018-03-25T18:42:41.066Z,22.90
2018-03-25T18:43:41.016Z,20.60
2018-03-25T18:44:40.955Z,19.60
2018-03-25T18:45:41.771Z,18.10
2018-03-25T18:46:40.517Z,21.60
2018-03-25T18:47:39.632Z,20.70
2018-03-25T18:48:40.533Z,21.90
2018-03-25T18:49:40.509Z,20.70
2018-03-25T18:50:40.532Z,17.90
2018-03-25T18:51:40.535Z,20.40
2018-03-25T18:52:40.023Z,20.30
2018-03-25T18:53:40.030Z,21.30
2018-03-25T18:54:40.041Z,22.90
2018-03-25T18:55:40.027Z,22.70
2018-03-25T18:56:40.090Z,18.10
2018-03-25T18:57:40.017Z,19.00
2018-03-25T18:58:39.532Z,19.70
2018-03-25T18:59:39.536Z,16.50
2018-03-25T19:00:41.152Z,20.70
2018-03-25T19:01:39.525Z,18.90
2018-03-25T19:02:39.512Z,20.60
2018-03-25T19:03:39.495Z,18.70
2018-03-25T19:04:39.371Z,20.00
2018-03-25T19:05:39.032Z,23.80
2018-03-25T19:06:39.047Z,20.40
2018-03-25T19:07:39.043Z,22.50
2018-03-25T19:08:39.023Z,22.30
2018-03-25T19:09:39.032Z,22.90
2018-03-25T19:10:39.015Z,20.30
2018-03-25T19:11:39.025Z,16.30
2018-03-25T19:12:38.515Z,25.90
2018-03-25T19:14:03.601Z,19.00
2018-03-25T19:14:38.516Z,22.40
2018-03-25T19:15:38.530Z,20.80
2018-03-25T19:16:38.561Z,23.10
2018-03-25T19:17:38.534Z,17.20
2018-03-25T19:18:38.559Z,24.50
2018-03-25T19:19:37.981Z,22.50
2018-03-25T19:20:38.044Z,23.60
2018-03-25T19:21:38.028Z,32.40
2018-03-25T19:22:38.047Z,27.70
2018-03-25T19:23:38.025Z,30.30
2018-03-25T19:24:38.033Z,21.80
2018-03-25T19:25:37.529Z,19.70
2018-03-25T19:26:37.523Z,22.60
2018-03-25T19:27:37.540Z,21.40
2018-03-25T19:28:37.545Z,20.20
2018-03-25T19:29:37.554Z,26.60
2018-03-25T19:30:37.532Z,26.20
2018-03-25T19:31:37.538Z,24.50
2018-03-25T19:32:37.035Z,19.90
2018-03-25T19:33:37.044Z,24.70
2018-03-25T19:34:37.042Z,18.40
2018-03-25T19:35:37.043Z,20.90
2018-03-25T19:36:37.071Z,14.90
2018-03-25T19:37:37.024Z,18.00
2018-03-25T19:38:37.017Z,17.30
2018-03-25T19:39:36.626Z,15.70
2018-03-25T19:40:36.573Z,16.90
2018-03-25T19:41:36.533Z,17.60
2018-03-25T19:42:36.544Z,18.70
2018-03-25T19:43:36.527Z,23.90
2018-03-25T19:44:36.553Z,20.90
2018-03-25T19:45:36.541Z,18.80
2018-03-25T19:46:36.043Z,20.40
2018-03-25T19:47:36.044Z,16.40
2018-03-25T19:48:36.030Z,19.70
2018-03-25T19:49:36.034Z,20.10
2018-03-25T19:50:36.003Z,15.70
2018-03-25T19:51:36.048Z,17.30
2018-03-25T19:52:35.546Z,21.80
2018-03-25T19:53:35.533Z,15.60
2018-03-25T19:54:34.689Z,16.70
2018-03-25T19:55:35.543Z,17.30
2018-03-25T19:56:35.536Z,15.50
2018-03-25T19:57:35.564Z,15.70
2018-03-25T19:58:35.530Z,14.50
2018-03-25T19:59:35.069Z,16.20
2018-03-25T20:00:35.035Z,15.30
2018-03-25T20:01:35.046Z,19.20
2018-03-25T20:02:35.045Z,16.00
2018-03-25T20:03:35.058Z,15.60
2018-03-25T20:04:35.036Z,17.00
2018-03-25T20:05:35.053Z,16.60
2018-03-25T20:06:34.553Z,16.50
2018-03-25T20:07:34.528Z,15.80
2018-03-25T20:08:34.592Z,16.20
2018-03-25T20:09:34.542Z,17.80
2018-03-25T20:10:53.540Z,15.40
2018-03-25T20:11:55.545Z,15.50
2018-03-25T20:12:34.507Z,15.60
2018-03-25T20:13:34.043Z,17.60
2018-03-25T20:14:34.058Z,14.80
2018-03-25T20:15:37.771Z,17.70
2018-03-25T20:16:42.804Z,16.90
2018-03-25T20:17:43.798Z,15.70
2018-03-25T20:18:49.613Z,16.20
2018-03-25T20:19:54.208Z,16.20
2018-03-25T20:20:54.010Z,13.90
2018-03-25T20:21:32.410Z,15.60
2018-03-25T20:22:33.530Z,17.50
2018-03-25T20:23:33.540Z,17.90
2018-03-25T20:24:33.539Z,16.10
2018-03-25T20:25:35.527Z,18.90
2018-03-25T20:26:33.038Z,15.60
2018-03-25T20:27:33.036Z,19.10
2018-03-25T20:28:33.047Z,20.60
2018-03-25T20:29:43.301Z,24.10
2018-03-25T20:30:33.036Z,20.30
2018-03-25T20:31:33.036Z,18.60
2018-03-25T20:32:33.039Z,24.00
2018-03-25T20:33:32.549Z,19.00
2018-03-25T20:34:32.544Z,20.80
2018-03-25T20:35:32.538Z,17.70
2018-03-25T20:36:32.540Z,15.40
2018-03-25T20:37:32.542Z,19.70
2018-03-25T21:32:59.335Z,12.00
2018-03-25T21:34:08.025Z,11.50
2018-03-25T21:35:00.499Z,12.70
2018-03-25T21:36:11.689Z,10.00
2018-03-25T21:37:00.010Z,10.30
2018-03-25T21:38:00.032Z,8.20
2018-03-25T21:39:00.013Z,10.20
2018-03-25T21:40:00.015Z,10.50
2018-03-25T21:40:59.998Z,12.70
2018-03-25T21:42:00.005Z,10.00
2018-03-25T21:42:59.494Z,9.60
2018-03-25T21:43:59.514Z,12.60
2018-03-25T21:44:59.499Z,10.30
2018-03-25T21:45:59.515Z,10.00
2018-03-25T21:46:59.496Z,12.50
2018-03-25T21:47:59.478Z,9.40
2018-03-25T21:48:59.507Z,10.20
2018-03-25T21:49:58.999Z,9.50
2018-03-25T21:50:59.011Z,11.40
2018-03-25T21:51:59.018Z,10.90
2018-03-25T21:52:59.023Z,12.20
2018-03-25T21:53:58.943Z,10.30
2018-03-25T21:54:59.031Z,8.70
2018-03-25T21:55:58.516Z,11.10
2018-03-25T21:57:23.157Z,11.00
2018-03-25T21:57:58.514Z,10.50
2018-03-25T21:58:58.511Z,9.00
2018-03-25T21:59:58.499Z,9.70
2018-03-25T22:00:58.509Z,8.90
2018-03-25T22:01:58.501Z,8.60
2018-03-25T22:02:58.021Z,9.60
2018-03-25T22:03:58.015Z,9.70
2018-03-25T22:04:58.023Z,9.70
2018-03-25T22:05:58.000Z,7.60
2018-03-25T22:06:58.014Z,7.30
2018-03-25T22:07:58.018Z,9.30
2018-03-25T22:08:58.019Z,8.60
2018-03-25T22:09:57.501Z,8.60
2018-03-25T22:10:57.509Z,10.20
2018-03-25T22:11:57.516Z,8.20
2018-03-25T22:12:57.503Z,8.80
2018-03-25T22:13:57.507Z,9.70
2018-03-25T22:14:57.504Z,9.40
2018-03-25T22:15:57.431Z,10.80
2018-03-25T22:16:57.009Z,8.60
2018-03-25T22:17:57.038Z,9.20
2018-03-25T22:18:57.014Z,10.10
2018-03-25T22:19:56.986Z,7.80
2018-03-25T22:20:57.005Z,9.10
2018-03-25T22:21:59.126Z,8.70
2018-03-25T22:22:56.527Z,8.70
2018-03-25T22:23:57.731Z,8.50
2018-03-25T22:24:56.514Z,10.20
2018-03-25T22:25:56.532Z,7.90
2018-03-25T22:26:58.941Z,7.70
2018-03-25T22:27:56.483Z,9.40
2018-03-25T22:28:56.512Z,7.10
2018-03-25T22:29:56.008Z,7.80
2018-03-25T22:30:58.712Z,7.50
2018-03-25T22:31:56.003Z,8.40
2018-03-25T22:32:58.718Z,9.30
2018-03-25T22:33:56.024Z,8.80
2018-03-25T22:34:56.020Z,7.60
2018-03-25T22:35:56.966Z,11.00
2018-03-25T22:36:58.105Z,7.60
2018-03-25T22:37:58.105Z,9.60
2018-03-25T22:38:55.516Z,8.20
2018-03-25T22:39:56.762Z,6.70
2018-03-25T22:40:58.111Z,7.10
2018-03-25T22:41:56.530Z,8.60
2018-03-25T22:42:57.502Z,8.60
2018-03-25T22:43:57.719Z,7.20
2018-03-25T22:44:57.510Z,8.40
2018-03-25T22:45:57.527Z,6.30
2018-03-25T22:46:57.529Z,7.50
2018-03-25T22:47:55.026Z,6.70
2018-03-25T22:48:55.955Z,7.50
2018-03-25T22:49:57.316Z,6.70
2018-03-25T22:50:57.282Z,6.70
2018-03-25T22:52:04.321Z,9.10
2018-03-25T22:52:54.514Z,7.30
2018-03-25T22:53:55.530Z,7.60
2018-03-25T22:54:55.530Z,6.90
2018-03-25T22:55:56.641Z,6.60
2018-03-25T22:56:56.444Z,7.10
2018-03-25T22:57:56.486Z,8.30
2018-03-25T22:58:56.273Z,6.30
2018-03-25T22:59:56.505Z,8.80
2018-03-25T23:00:54.030Z,7.20
2018-03-25T23:01:54.007Z,7.30
2018-03-25T23:02:52.935Z,6.90
2018-03-25T23:03:53.541Z,6.80
2018-03-25T23:04:53.519Z,7.30
2018-03-25T23:05:53.523Z,7.70
2018-03-25T23:06:54.441Z,7.20
2018-03-25T23:07:53.529Z,6.10
2018-03-25T23:08:53.482Z,6.90
2018-03-25T23:09:53.019Z,7.60
2018-03-25T23:10:53.025Z,8.40
2018-03-25T23:11:53.030Z,7.80
2018-03-25T23:12:53.034Z,8.50
2018-03-25T23:13:53.041Z,9.20
2018-03-25T23:14:53.041Z,9.70
2018-03-25T23:15:52.846Z,7.60
2018-03-25T23:16:51.819Z,7.60
2018-03-25T23:17:51.779Z,8.60
2018-03-25T23:18:52.520Z,8.40
2018-03-25T23:19:52.531Z,7.40
2018-03-25T23:20:52.528Z,7.60
2018-03-25T23:21:52.527Z,9.10
2018-03-25T23:22:52.022Z,7.00
2018-03-25T23:23:52.044Z,8.30
2018-03-25T23:24:52.025Z,8.90
2018-03-25T23:25:52.040Z,8.40
2018-03-25T23:26:52.050Z,8.30
2018-03-25T23:27:52.038Z,8.10
2018-03-25T23:28:55.400Z,7.80
2018-03-25T23:29:57.431Z,7.70
2018-03-25T23:31:00.707Z,8.20
2018-03-25T23:32:02.274Z,7.90
2018-03-25T23:33:02.913Z,8.30
2018-03-25T23:34:09.696Z,7.00
2018-03-25T23:35:10.517Z,7.70
2018-03-25T23:36:16.452Z,7.70
2018-03-25T23:36:48.496Z,7.90
2018-03-25T23:38:09.411Z,8.60
2018-03-25T23:39:13.349Z,7.60
2018-03-25T23:39:48.991Z,7.70
2018-03-25T23:40:48.185Z,7.90
2018-03-25T23:41:53.135Z,7.20
2018-03-25T23:42:50.970Z,7.60
2018-03-25T23:43:52.986Z,7.20
2018-03-25T23:44:53.409Z,7.50
2018-03-25T23:45:52.802Z,7.10
2018-03-25T23:46:53.950Z,7.10
2018-03-25T23:47:50.533Z,6.90
2018-03-25T23:48:56.283Z,6.90
2018-03-25T23:49:50.058Z,7.10
2018-03-25T23:50:51.369Z,6.80
2018-03-25T23:51:52.491Z,8.00
2018-03-25T23:52:52.531Z,7.10
2018-03-25T23:53:52.353Z,7.30
2018-03-25T23:54:50.048Z,6.50
2018-03-25T23:55:49.967Z,7.50
2018-03-25T23:56:49.528Z,8.20
2018-03-25T23:57:50.464Z,6.70
2018-03-25T23:58:49.541Z,6.00
2018-03-25T23:59:49.539Z,6.90
